sensor_id;sensor_type;location;lat;lon;timestamp;pressure;altitude;pressure_sealevel;temperature;humidity
60642;BME280;46837;52.446;-1.930;2023-09-18T00:00:11;98902.11;;;18.71;87.77
60642;BME280;46837;52.446;-1.930;2023-09-18T00:01:09;98897.73;;;18.71;87.68
60642;BME280;46837;52.446;-1.930;2023-09-18T00:02:09;98896.16;;;18.73;87.68
60642;BME280;46837;52.446;-1.930;2023-09-18T00:03:09;98890.85;;;18.73;
60642;BME280;46837;52.446;-1.930;2023-09-18T00:04:09;98885.00;;;18.74;87.46
60642;BME280;46837;52.446;-1.930;2023-09-18T00:05:09;98882.68;;;18.73;87.39
60642;BME280;46837;52.446;-1.930;2023-09-18T00:06:09;98878.83;;;18.73;87.41
60642;BME280;46837;52.446;-1.930;2023-09-18T00:07:09;98876.04;;;18.71;87.24
60642;BME280;46837;52.446;-1.930;2023-09-18T00:08:09;98874.98;;;18.70;87.52
60642;BME280;46837;52.446;-1.930;2023-09-18T00:09:09;98867.48;;;18.71;87.54
60642;BME280;46837;52.446;-1.930;2023-09-18T00:10:09;98868.51;;;18.70;87.57
60642;BME280;46837;52.446;-1.930;2023-09-18T00:11:09;98866.68;;;18.73;87.60
60642;BME280;46837;52.446;-1.930;2023-09-18T00:12:09;98871.69;;;18.73;
60642;BME280;46837;52.446;-1.930;2023-09-18T00:13:09;98869.63;;;18.74;87.45
60642;BME280;46837;52.446;-1.930;2023-09-18T00:14:11;98870.22;;;18.77;87.28
60642;BME280;46837;52.446;-1.930;2023-09-18T00:15:09;98870.98;;;18.77;87.27
60642;BME280;46837;52.446;-1.930;2023-09-18T00:16:09;98868.30;;;18.77;87.36
60642;BME280;46837;52.446;-1.930;2023-09-18T00:17:09;98864.78;;;18.78;87.33
60642;BME280;46837;52.446;-1.930;2023-09-18T00:18:09;98861.26;;;18.78;87.32
60642;BME280;46837;52.446;-1.930;2023-09-18T00:19:10;98860.46;;;18.78;87.19
60642;BME280;46837;52.446;-1.930;2023-09-18T00:20:09;98863.57;;;18.80;87.20
60642;BME280;46837;52.446;-1.930;2023-09-18T00:21:09;98871.31;;;18.81;87.04
60642;BME280;46837;52.446;-1.930;2023-09-18T00:22:09;98875.50;;;18.81;86.95
60642;BME280;46837;52.446;-1.930;2023-09-18T00:23:09;98880.95;;;18.77;87.20
60642;BME280;46837;52.446;-1.930;2023-09-18T00:24:09;98881.09;;;18.74;87.55
60642;BME280;46837;52.446;-1.930;2023-09-18T00:25:09;98881.49;;;18.72;87.80
60642;BME280;46837;52.446;-1.930;2023-09-18T00:26:09;98882.55;;;18.73;87.77
60642;BME280;46837;52.446;-1.930;2023-09-18T00:27:09;98880.86;;;18.71;87.75
60642;BME280;46837;52.446;-1.930;2023-09-18T00:28:09;98873.58;;;18.73;87.71
60642;BME280;46837;52.446;-1.930;2023-09-18T00:29:09;98866.14;;;18.76;87.63
60642;BME280;46837;52.446;-1.930;2023-09-18T00:30:09;98864.61;;;18.78;87.43
60642;BME280;46837;52.446;-1.930;2023-09-18T00:31:09;98862.45;;;18.80;87.20
60642;BME280;46837;52.446;-1.930;2023-09-18T00:32:09;98867.20;;;18.81;87.17
60642;BME280;46837;52.446;-1.930;2023-09-18T00:33:09;98866.04;;;18.79;87.26
60642;BME280;46837;52.446;-1.930;2023-09-18T00:34:09;98869.72;;;18.78;87.42
60642;BME280;46837;52.446;-1.930;2023-09-18T00:35:09;98867.64;;;18.77;87.51
60642;BME280;46837;52.446;-1.930;2023-09-18T00:36:09;98862.18;;;18.78;87.43
60642;BME280;46837;52.446;-1.930;2023-09-18T00:37:09;98857.07;;;18.80;87.39
60642;BME280;46837;52.446;-1.930;2023-09-18T00:38:10;98853.41;;;18.81;87.22
60642;BME280;46837;52.446;-1.930;2023-09-18T00:39:09;98852.52;;;18.80;87.36
60642;BME280;46837;52.446;-1.930;2023-09-18T00:40:09;98853.91;;;18.81;87.39
60642;BME280;46837;52.446;-1.930;2023-09-18T00:41:09;98851.06;;;18.79;87.45
60642;BME280;46837;52.446;-1.930;2023-09-18T00:42:09;98851.99;;;18.78;87.81
60642;BME280;46837;52.446;-1.930;2023-09-18T00:43:09;98848.75;;;18.74;87.80
60642;BME280;46837;52.446;-1.930;2023-09-18T00:44:09;98848.05;;;18.71;88.05
60642;BME280;46837;52.446;-1.930;2023-09-18T00:45:09;98845.93;;;18.73;88.05
60642;BME280;46837;52.446;-1.930;2023-09-18T00:46:09;98845.86;;;18.73;88.09
60642;BME280;46837;52.446;-1.930;2023-09-18T00:47:11;98840.44;;;18.74;87.96
60642;BME280;46837;52.446;-1.930;2023-09-18T00:48:09;98842.20;;;18.75;87.91
60642;BME280;46837;52.446;-1.930;2023-09-18T00:49:09;98838.45;;;18.76;87.73
60642;BME280;46837;52.446;-1.930;2023-09-18T00:50:09;98835.09;;;18.76;87.69
60642;BME280;46837;52.446;-1.930;2023-09-18T00:51:09;98831.54;;;18.77;87.71
60642;BME280;46837;52.446;-1.930;2023-09-18T00:52:09;98825.39;;;18.78;87.71
60642;BME280;46837;52.446;-1.930;2023-09-18T00:53:09;98826.32;;;18.81;87.51
60642;BME280;46837;52.446;-1.930;2023-09-18T00:54:09;98826.25;;;18.82;
60642;BME280;46837;52.446;-1.930;2023-09-18T00:55:09;98823.49;;;18.81;87.54
60642;BME280;46837;52.446;-1.930;2023-09-18T00:56:09;98821.27;;;18.81;87.50
60642;BME280;46837;52.446;-1.930;2023-09-18T00:57:09;98821.91;;;18.77;87.61
60642;BME280;46837;52.446;-1.930;2023-09-18T00:58:09;98818.02;;;18.77;87.66
60642;BME280;46837;52.446;-1.930;2023-09-18T00:59:09;98816.23;;;18.77;87.61
60642;BME280;46837;52.446;-1.930;2023-09-18T01:00:09;98816.21;;;18.73;87.81
60642;BME280;46837;52.446;-1.930;2023-09-18T01:01:09;98812.82;;;18.73;87.85
60642;BME280;46837;52.446;-1.930;2023-09-18T01:02:09;98810.20;;;18.72;87.78
60642;BME280;46837;52.446;-1.930;2023-09-18T01:03:09;98809.51;;;18.70;87.91
60642;BME280;46837;52.446;-1.930;2023-09-18T01:04:09;98807.41;;;18.71;87.90
60642;BME280;46837;52.446;-1.930;2023-09-18T01:05:09;98809.34;;;18.72;87.85
60642;BME280;46837;52.446;-1.930;2023-09-18T01:06:09;98803.09;;;18.73;88.02
60642;BME280;46837;52.446;-1.930;2023-09-18T01:07:09;98803.32;;;18.74;87.76
60642;BME280;46837;52.446;-1.930;2023-09-18T01:08:09;98802.99;;;18.75;87.75
60642;BME280;46837;52.446;-1.930;2023-09-18T01:09:13;98801.57;;;18.71;88.03
60642;BME280;46837;52.446;-1.930;2023-09-18T01:10:09;98799.21;;;18.72;87.98
60642;BME280;46837;52.446;-1.930;2023-09-18T01:11:14;98801.18;;;18.68;88.08
60642;BME280;46837;52.446;-1.930;2023-09-18T01:12:17;98801.24;;;18.69;88.16
60642;BME280;46837;52.446;-1.930;2023-09-18T01:13:13;98801.05;;;18.68;88.19
60642;BME280;46837;52.446;-1.930;2023-09-18T01:14:14;98802.17;;;18.70;88.12
60642;BME280;46837;52.446;-1.930;2023-09-18T01:15:22;98799.21;;;18.72;88.09
60642;BME280;46837;52.446;-1.930;2023-09-18T01:16:14;98801.80;;;18.70;88.13
60642;BME280;46837;52.446;-1.930;2023-09-18T01:17:09;98800.00;;;18.73;88.04
60642;BME280;46837;52.446;-1.930;2023-09-18T01:18:09;98797.05;;;18.73;87.95
60642;BME280;46837;52.446;-1.930;2023-09-18T01:19:09;98793.86;;;18.75;88.01
60642;BME280;46837;52.446;-1.930;2023-09-18T01:20:11;98790.80;;;18.75;87.92
60642;BME280;46837;52.446;-1.930;2023-09-18T01:21:09;98793.09;;;18.77;87.87
60642;BME280;46837;52.446;-1.930;2023-09-18T01:22:09;98793.12;;;18.77;87.78
60642;BME280;46837;52.446;-1.930;2023-09-18T01:23:09;98788.36;;;18.69;88.05
60642;BME280;46837;52.446;-1.930;2023-09-18T01:24:09;98787.23;;;18.68;88.21
60642;BME280;46837;52.446;-1.930;2023-09-18T01:25:09;98784.88;;;18.68;88.27
60642;BME280;46837;52.446;-1.930;2023-09-18T01:26:09;98782.79;;;18.68;88.45
60642;BME280;46837;52.446;-1.930;2023-09-18T01:27:10;98781.86;;;18.67;88.47
60642;BME280;46837;52.446;-1.930;2023-09-18T01:28:09;98781.62;;;18.67;88.37
60642;BME280;46837;52.446;-1.930;2023-09-18T01:29:09;98778.71;;;18.67;88.44
60642;BME280;46837;52.446;-1.930;2023-09-18T01:30:09;98778.91;;;18.66;88.55
60642;BME280;46837;52.446;-1.930;2023-09-18T01:31:09;98776.91;;;18.68;88.57
60642;BME280;46837;52.446;-1.930;2023-09-18T01:32:09;98778.13;;;18.71;88.30
60642;BME280;46837;52.446;-1.930;2023-09-18T01:33:09;98778.46;;;18.72;88.08
60642;BME280;46837;52.446;-1.930;2023-09-18T01:34:09;98776.00;;;18.72;88.15
60642;BME280;46837;52.446;-1.930;2023-09-18T01:35:11;98773.94;;;18.73;88.12
60642;BME280;46837;52.446;-1.930;2023-09-18T01:36:09;98777.60;;;18.71;88.22
60642;BME280;46837;52.446;-1.930;2023-09-18T01:37:09;98774.98;;;18.69;88.39
60642;BME280;46837;52.446;-1.930;2023-09-18T01:38:09;98776.54;;;18.69;88.41
60642;BME280;46837;52.446;-1.930;2023-09-18T01:39:09;98779.30;;;18.69;88.39
60642;BME280;46837;52.446;-1.930;2023-09-18T01:40:09;98778.16;;;18.71;88.54
60642;BME280;46837;52.446;-1.930;2023-09-18T01:41:09;98777.60;;;18.70;88.45
60642;BME280;46837;52.446;-1.930;2023-09-18T01:42:09;98776.04;;;18.69;88.47
60642;BME280;46837;52.446;-1.930;2023-09-18T01:43:09;98774.76;;;18.65;88.65
60642;BME280;46837;52.446;-1.930;2023-09-18T01:44:09;98772.89;;;18.69;88.70
60642;BME280;46837;52.446;-1.930;2023-09-18T01:45:09;98769.18;;;18.67;88.67
60642;BME280;46837;52.446;-1.930;2023-09-18T01:46:09;98767.91;;;18.67;88.54
60642;BME280;46837;52.446;-1.930;2023-09-18T01:47:10;98765.37;;;18.64;88.78
60642;BME280;46837;52.446;-1.930;2023-09-18T01:48:09;98765.07;;;18.62;88.88
60642;BME280;46837;52.446;-1.930;2023-09-18T01:49:09;98760.96;;;18.61;89.02
60642;BME280;46837;52.446;-1.930;2023-09-18T01:50:10;98760.40;;;18.58;89.06
60642;BME280;46837;52.446;-1.930;2023-09-18T01:51:09;98754.20;;;18.58;89.22
60642;BME280;46837;52.446;-1.930;2023-09-18T01:52:09;98754.59;;;18.59;89.20
60642;BME280;46837;52.446;-1.930;2023-09-18T01:53:09;98749.37;;;18.61;89.06
60642;BME280;46837;52.446;-1.930;2023-09-18T01:54:09;98747.75;;;18.62;88.91
60642;BME280;46837;52.446;-1.930;2023-09-18T01:55:09;98739.04;;;18.65;88.90
60642;BME280;46837;52.446;-1.930;2023-09-18T01:56:09;98738.63;;;18.67;88.71
60642;BME280;46837;52.446;-1.930;2023-09-18T01:57:10;98732.15;;;18.69;88.57
60642;BME280;46837;52.446;-1.930;2023-09-18T01:58:09;98728.72;;;18.71;88.51
60642;BME280;46837;52.446;-1.930;2023-09-18T01:59:09;98727.39;;;18.71;88.39
60642;BME280;46837;52.446;-1.930;2023-09-18T02:00:11;98724.60;;;18.73;88.45
60642;BME280;46837;52.446;-1.930;2023-09-18T02:01:09;98720.07;;;18.75;88.35
60642;BME280;46837;52.446;-1.930;2023-09-18T02:02:10;98721.82;;;18.78;88.10
60642;BME280;46837;52.446;-1.930;2023-09-18T02:03:09;98717.96;;;18.80;88.04
60642;BME280;46837;52.446;-1.930;2023-09-18T02:04:09;98714.32;;;18.78;88.10
60642;BME280;46837;52.446;-1.930;2023-09-18T02:05:09;98712.16;;;18.77;88.28
60642;BME280;46837;52.446;-1.930;2023-09-18T02:06:10;98710.67;;;18.77;88.19
60642;BME280;46837;52.446;-1.930;2023-09-18T02:07:09;98707.53;;;18.74;88.39
60642;BME280;46837;52.446;-1.930;2023-09-18T02:08:09;98702.98;;;18.75;88.34
60642;BME280;46837;52.446;-1.930;2023-09-18T02:09:09;98705.10;;;18.76;88.25
60642;BME280;46837;52.446;-1.930;2023-09-18T02:10:09;98700.05;;;18.76;88.15
60642;BME280;46837;52.446;-1.930;2023-09-18T02:11:09;98696.16;;;18.78;88.15
60642;BME280;46837;52.446;-1.930;2023-09-18T02:12:09;98697.27;;;18.75;88.23
60642;BME280;46837;52.446;-1.930;2023-09-18T02:13:09;98692.53;;;18.73;88.37
60642;BME280;46837;52.446;-1.930;2023-09-18T02:14:09;98693.76;;;18.73;88.28
60642;BME280;46837;52.446;-1.930;2023-09-18T02:15:09;98691.70;;;18.73;88.41
60642;BME280;46837;52.446;-1.930;2023-09-18T02:16:09;98691.39;;;18.67;88.54
60642;BME280;46837;52.446;-1.930;2023-09-18T02:17:09;98691.42;;;18.68;88.70
60642;BME280;46837;52.446;-1.930;2023-09-18T02:18:09;98691.59;;;18.66;88.83
60642;BME280;46837;52.446;-1.930;2023-09-18T02:19:11;98691.09;;;18.67;88.70
60642;BME280;46837;52.446;-1.930;2023-09-18T02:20:13;98690.04;;;18.65;88.76
60642;BME280;46837;52.446;-1.930;2023-09-18T02:21:09;98690.94;;;18.63;88.97
60642;BME280;46837;52.446;-1.930;2023-09-18T02:22:09;98688.91;;;18.64;88.90
60642;BME280;46837;52.446;-1.930;2023-09-18T02:23:09;98687.98;;;18.64;88.80
60642;BME280;46837;52.446;-1.930;2023-09-18T02:24:09;98681.65;;;18.61;89.14
60642;BME280;46837;52.446;-1.930;2023-09-18T02:25:09;98680.21;;;18.64;88.98
60642;BME280;46837;52.446;-1.930;2023-09-18T02:26:09;98675.73;;;18.64;88.87
60642;BME280;46837;52.446;-1.930;2023-09-18T02:27:09;98677.16;;;18.63;88.88
60642;BME280;46837;52.446;-1.930;2023-09-18T02:28:09;98677.92;;;18.65;88.86
60642;BME280;46837;52.446;-1.930;2023-09-18T02:29:09;98675.02;;;18.66;88.82
60642;BME280;46837;52.446;-1.930;2023-09-18T02:30:09;98673.85;;;18.68;88.70
60642;BME280;46837;52.446;-1.930;2023-09-18T02:31:09;98669.07;;;18.69;88.70
60642;BME280;46837;52.446;-1.930;2023-09-18T02:32:09;98670.80;;;18.69;88.64
60642;BME280;46837;52.446;-1.930;2023-09-18T02:33:09;98666.80;;;18.70;88.59
60642;BME280;46837;52.446;-1.930;2023-09-18T02:34:09;98667.74;;;18.70;88.57
60642;BME280;46837;52.446;-1.930;2023-09-18T02:35:09;98666.75;;;18.68;88.68
60642;BME280;46837;52.446;-1.930;2023-09-18T02:36:09;98664.83;;;18.67;88.78
60642;BME280;46837;52.446;-1.930;2023-09-18T02:37:09;98663.37;;;18.67;88.93
60642;BME280;46837;52.446;-1.930;2023-09-18T02:38:09;98662.66;;;18.69;88.89
60642;BME280;46837;52.446;-1.930;2023-09-18T02:39:09;98660.21;;;18.68;88.74
60642;BME280;46837;52.446;-1.930;2023-09-18T02:40:09;98661.77;;;18.68;88.85
60642;BME280;46837;52.446;-1.930;2023-09-18T02:41:09;98658.25;;;18.68;88.75
60642;BME280;46837;52.446;-1.930;2023-09-18T02:42:09;98652.73;;;18.69;88.81
60642;BME280;46837;52.446;-1.930;2023-09-18T02:43:09;98649.54;;;18.70;88.84
60642;BME280;46837;52.446;-1.930;2023-09-18T02:44:09;98652.96;;;18.71;88.81
60642;BME280;46837;52.446;-1.930;2023-09-18T02:45:09;98646.75;;;18.70;88.79
60642;BME280;46837;52.446;-1.930;2023-09-18T02:46:09;98644.89;;;18.70;88.72
60642;BME280;46837;52.446;-1.930;2023-09-18T02:47:09;98643.40;;;18.70;88.81
60642;BME280;46837;52.446;-1.930;2023-09-18T02:48:09;98637.56;;;18.69;88.91
60642;BME280;46837;52.446;-1.930;2023-09-18T02:49:09;98635.66;;;18.70;88.83
60642;BME280;46837;52.446;-1.930;2023-09-18T02:50:09;98633.51;;;18.70;88.73
60642;BME280;46837;52.446;-1.930;2023-09-18T02:51:09;98632.07;;;18.71;88.79
60642;BME280;46837;52.446;-1.930;2023-09-18T02:52:09;98625.73;;;18.71;88.78
60642;BME280;46837;52.446;-1.930;2023-09-18T02:54:09;98622.54;;;18.73;88.61
60642;BME280;46837;52.446;-1.930;2023-09-18T02:55:09;98621.71;;;18.71;88.79
60642;BME280;46837;52.446;-1.930;2023-09-18T02:56:09;98620.73;;;18.70;88.87
60642;BME280;46837;52.446;-1.930;2023-09-18T02:57:09;98615.83;;;18.66;89.00
60642;BME280;46837;52.446;-1.930;2023-09-18T02:58:09;98614.30;;;18.60;89.14
60642;BME280;46837;52.446;-1.930;2023-09-18T02:59:09;98614.01;;;18.59;89.36
60642;BME280;46837;52.446;-1.930;2023-09-18T03:00:09;98615.38;;;18.58;89.46
60642;BME280;46837;52.446;-1.930;2023-09-18T03:01:09;98610.15;;;18.60;89.42
60642;BME280;46837;52.446;-1.930;2023-09-18T03:02:09;98610.05;;;18.60;89.30
60642;BME280;46837;52.446;-1.930;2023-09-18T03:03:09;98607.14;;;18.58;89.32
60642;BME280;46837;52.446;-1.930;2023-09-18T03:04:09;98606.41;;;18.58;89.31
60642;BME280;46837;52.446;-1.930;2023-09-18T03:05:09;98600.82;;;18.55;89.50
60642;BME280;46837;52.446;-1.930;2023-09-18T03:06:09;98600.66;;;18.54;89.36
60642;BME280;46837;52.446;-1.930;2023-09-18T03:07:09;98602.23;;;18.52;89.56
60642;BME280;46837;52.446;-1.930;2023-09-18T03:08:09;98602.57;;;18.51;89.63
60642;BME280;46837;52.446;-1.930;2023-09-18T03:09:09;98599.19;;;18.49;89.91
60642;BME280;46837;52.446;-1.930;2023-09-18T03:10:09;98596.55;;;18.45;89.93
60642;BME280;46837;52.446;-1.930;2023-09-18T03:11:13;98596.41;;;18.46;89.86
60642;BME280;46837;52.446;-1.930;2023-09-18T03:12:09;98595.22;;;18.46;89.89
60642;BME280;46837;52.446;-1.930;2023-09-18T03:13:11;98595.82;;;18.44;89.91
60642;BME280;46837;52.446;-1.930;2023-09-18T03:14:09;98593.20;;;18.45;90.11
60642;BME280;46837;52.446;-1.930;2023-09-18T03:15:09;98594.99;;;18.46;89.95
60642;BME280;46837;52.446;-1.930;2023-09-18T03:16:10;98590.96;;;18.43;90.06
60642;BME280;46837;52.446;-1.930;2023-09-18T03:17:09;98591.62;;;18.41;90.11
60642;BME280;46837;52.446;-1.930;2023-09-18T03:18:09;98591.63;;;18.40;90.25
60642;BME280;46837;52.446;-1.930;2023-09-18T03:19:09;98587.43;;;18.37;90.13
60642;BME280;46837;52.446;-1.930;2023-09-18T03:20:09;98590.30;;;18.34;90.30
60642;BME280;46837;52.446;-1.930;2023-09-18T03:21:09;98585.88;;;18.34;90.35
60642;BME280;46837;52.446;-1.930;2023-09-18T03:22:09;98587.29;;;18.32;90.50
60642;BME280;46837;52.446;-1.930;2023-09-18T03:23:09;98581.68;;;18.31;90.63
60642;BME280;46837;52.446;-1.930;2023-09-18T03:24:09;98582.49;;;18.28;90.69
60642;BME280;46837;52.446;-1.930;2023-09-18T03:25:09;98585.00;;;18.31;90.75
60642;BME280;46837;52.446;-1.930;2023-09-18T03:26:09;98576.09;;;18.29;90.66
60642;BME280;46837;52.446;-1.930;2023-09-18T03:27:09;98575.84;;;18.24;90.98
60642;BME280;46837;52.446;-1.930;2023-09-18T03:28:09;98574.97;;;18.26;91.01
60642;BME280;46837;52.446;-1.930;2023-09-18T03:29:09;98575.40;;;18.26;90.87
60642;BME280;46837;52.446;-1.930;2023-09-18T03:30:09;98579.11;;;18.27;90.79
60642;BME280;46837;52.446;-1.930;2023-09-18T03:31:09;98582.07;;;18.26;90.72
60642;BME280;46837;52.446;-1.930;2023-09-18T03:32:09;98587.06;;;18.23;90.79
60642;BME280;46837;52.446;-1.930;2023-09-18T03:33:09;98587.06;;;18.23;90.84
60642;BME280;46837;52.446;-1.930;2023-09-18T03:34:09;98589.95;;;18.23;90.70
60642;BME280;46837;52.446;-1.930;2023-09-18T03:35:09;98592.43;;;18.23;90.70
60642;BME280;46837;52.446;-1.930;2023-09-18T03:36:09;98594.07;;;18.21;90.75
60642;BME280;46837;52.446;-1.930;2023-09-18T03:37:09;98595.36;;;18.21;90.77
60642;BME280;46837;52.446;-1.930;2023-09-18T03:38:09;98594.73;;;18.23;90.62
60642;BME280;46837;52.446;-1.930;2023-09-18T03:39:09;98595.00;;;18.21;90.65
60642;BME280;46837;52.446;-1.930;2023-09-18T03:40:09;98594.20;;;18.21;90.67
60642;BME280;46837;52.446;-1.930;2023-09-18T03:41:09;98593.75;;;18.18;90.84
60642;BME280;46837;52.446;-1.930;2023-09-18T03:42:09;98590.13;;;18.19;90.97
60642;BME280;46837;52.446;-1.930;2023-09-18T03:43:09;98589.94;;;18.16;90.94
60642;BME280;46837;52.446;-1.930;2023-09-18T03:44:09;98582.73;;;18.10;91.02
60642;BME280;46837;52.446;-1.930;2023-09-18T03:45:09;98586.01;;;18.10;91.30
60642;BME280;46837;52.446;-1.930;2023-09-18T03:46:09;98583.82;;;18.11;91.22
60642;BME280;46837;52.446;-1.930;2023-09-18T03:47:09;98585.58;;;18.12;91.07
60642;BME280;46837;52.446;-1.930;2023-09-18T03:48:09;98584.39;;;18.08;91.08
60642;BME280;46837;52.446;-1.930;2023-09-18T03:49:09;98590.06;;;18.10;91.12
60642;BME280;46837;52.446;-1.930;2023-09-18T03:50:09;98590.81;;;18.12;91.22
60642;BME280;46837;52.446;-1.930;2023-09-18T03:51:09;98590.20;;;18.16;91.02
60642;BME280;46837;52.446;-1.930;2023-09-18T03:52:09;98589.34;;;18.17;90.92
60642;BME280;46837;52.446;-1.930;2023-09-18T03:53:09;98593.41;;;18.18;90.77
60642;BME280;46837;52.446;-1.930;2023-09-18T03:54:09;98597.26;;;18.19;90.76
60642;BME280;46837;52.446;-1.930;2023-09-18T03:55:09;98595.90;;;18.18;90.72
60642;BME280;46837;52.446;-1.930;2023-09-18T03:56:09;98597.73;;;18.18;90.69
60642;BME280;46837;52.446;-1.930;2023-09-18T03:57:09;98599.43;;;18.17;90.74
60642;BME280;46837;52.446;-1.930;2023-09-18T03:58:09;98597.00;;;18.18;90.90
60642;BME280;46837;52.446;-1.930;2023-09-18T03:59:09;98594.77;;;18.19;90.74
60642;BME280;46837;52.446;-1.930;2023-09-18T04:00:09;98595.04;;;18.17;90.70
60642;BME280;46837;52.446;-1.930;2023-09-18T04:01:09;98593.78;;;18.18;90.75
60642;BME280;46837;52.446;-1.930;2023-09-18T04:02:09;98590.05;;;18.20;90.54
60642;BME280;46837;52.446;-1.930;2023-09-18T04:03:09;98589.26;;;18.21;90.37
60642;BME280;46837;52.446;-1.930;2023-09-18T04:04:09;98585.75;;;18.19;90.43
60642;BME280;46837;52.446;-1.930;2023-09-18T04:05:09;98585.80;;;18.15;90.54
60642;BME280;46837;52.446;-1.930;2023-09-18T04:06:09;98585.83;;;18.15;90.58
60642;BME280;46837;52.446;-1.930;2023-09-18T04:07:09;98588.11;;;18.09;90.56
60642;BME280;46837;52.446;-1.930;2023-09-18T04:08:09;98587.48;;;18.07;90.58
60642;BME280;46837;52.446;-1.930;2023-09-18T04:09:09;98588.14;;;18.07;90.66
60642;BME280;46837;52.446;-1.930;2023-09-18T04:10:09;98587.79;;;18.06;90.74
60642;BME280;46837;52.446;-1.930;2023-09-18T04:11:10;98589.48;;;18.06;90.76
60642;BME280;46837;52.446;-1.930;2023-09-18T04:12:10;98590.07;;;18.06;90.80
60642;BME280;46837;52.446;-1.930;2023-09-18T04:13:09;98591.46;;;18.07;90.89
60642;BME280;46837;52.446;-1.930;2023-09-18T04:14:09;98588.66;;;18.02;90.62
60642;BME280;46837;52.446;-1.930;2023-09-18T04:15:09;98588.98;;;17.96;90.52
60642;BME280;46837;52.446;-1.930;2023-09-18T04:16:09;98583.85;;;17.92;90.52
60642;BME280;46837;52.446;-1.930;2023-09-18T04:17:09;98580.73;;;17.94;90.36
60642;BME280;46837;52.446;-1.930;2023-09-18T04:18:09;98579.87;;;17.92;90.14
60642;BME280;46837;52.446;-1.930;2023-09-18T04:19:09;98582.01;;;17.85;90.07
60642;BME280;46837;52.446;-1.930;2023-09-18T04:20:09;98580.78;;;17.87;90.21
60642;BME280;46837;52.446;-1.930;2023-09-18T04:21:09;98577.92;;;17.88;90.05
60642;BME280;46837;52.446;-1.930;2023-09-18T04:22:09;98573.79;;;17.83;89.79
60642;BME280;46837;52.446;-1.930;2023-09-18T04:24:09;98571.50;;;17.71;89.79
60642;BME280;46837;52.446;-1.930;2023-09-18T04:25:09;98565.54;;;17.68;89.94
60642;BME280;46837;52.446;-1.930;2023-09-18T04:26:09;98563.15;;;17.70;89.84
60642;BME280;46837;52.446;-1.930;2023-09-18T04:27:09;98562.72;;;17.68;89.50
60642;BME280;46837;52.446;-1.930;2023-09-18T04:28:09;98562.89;;;17.68;89.46
60642;BME280;46837;52.446;-1.930;2023-09-18T04:29:09;98556.16;;;17.66;89.27
60642;BME280;46837;52.446;-1.930;2023-09-18T04:30:09;98556.93;;;17.64;89.14
60642;BME280;46837;52.446;-1.930;2023-09-18T04:31:09;98556.14;;;17.60;89.14
60642;BME280;46837;52.446;-1.930;2023-09-18T04:32:09;98558.34;;;17.56;89.13
60642;BME280;46837;52.446;-1.930;2023-09-18T04:33:09;98555.49;;;17.56;89.40
60642;BME280;46837;52.446;-1.930;2023-09-18T04:34:09;98562.91;;;17.54;89.32
60642;BME280;46837;52.446;-1.930;2023-09-18T04:35:09;98562.23;;;17.48;89.31
60642;BME280;46837;52.446;-1.930;2023-09-18T04:36:09;98559.27;;;17.50;89.63
60642;BME280;46837;52.446;-1.930;2023-09-18T04:37:09;98558.42;;;17.48;89.42
60642;BME280;46837;52.446;-1.930;2023-09-18T04:38:09;98559.35;;;17.47;89.48
60642;BME280;46837;52.446;-1.930;2023-09-18T04:39:09;98557.66;;;17.42;89.55
60642;BME280;46837;52.446;-1.930;2023-09-18T04:40:09;98559.28;;;17.44;89.76
60642;BME280;46837;52.446;-1.930;2023-09-18T04:41:09;98560.04;;;17.47;89.61
60642;BME280;46837;52.446;-1.930;2023-09-18T04:42:09;98557.12;;;17.46;89.48
60642;BME280;46837;52.446;-1.930;2023-09-18T04:43:09;98559.21;;;17.47;89.46
60642;BME280;46837;52.446;-1.930;2023-09-18T04:44:09;98559.45;;;17.46;89.35
60642;BME280;46837;52.446;-1.930;2023-09-18T04:45:09;98558.69;;;17.44;89.37
60642;BME280;46837;52.446;-1.930;2023-09-18T04:46:09;98554.52;;;17.44;89.38
60642;BME280;46837;52.446;-1.930;2023-09-18T04:47:09;98557.67;;;17.39;89.58
60642;BME280;46837;52.446;-1.930;2023-09-18T04:48:09;98560.65;;;17.38;89.64
60642;BME280;46837;52.446;-1.930;2023-09-18T04:49:09;98562.21;;;17.33;89.69
60642;BME280;46837;52.446;-1.930;2023-09-18T04:50:12;98566.59;;;17.32;89.97
60642;BME280;46837;52.446;-1.930;2023-09-18T04:51:09;98562.14;;;17.31;89.90
60642;BME280;46837;52.446;-1.930;2023-09-18T04:52:09;98562.81;;;17.30;89.91
60642;BME280;46837;52.446;-1.930;2023-09-18T04:53:09;98560.49;;;17.32;89.96
60642;BME280;46837;52.446;-1.930;2023-09-18T04:54:09;98555.95;;;17.28;89.82
60642;BME280;46837;52.446;-1.930;2023-09-18T04:55:09;98554.20;;;17.26;90.04
60642;BME280;46837;52.446;-1.930;2023-09-18T04:56:09;98557.05;;;17.24;90.10
60642;BME280;46837;52.446;-1.930;2023-09-18T04:57:09;98558.67;;;17.26;90.15
60642;BME280;46837;52.446;-1.930;2023-09-18T04:58:09;98557.45;;;17.20;90.29
60642;BME280;46837;52.446;-1.930;2023-09-18T04:59:09;98557.61;;;17.17;90.51
60642;BME280;46837;52.446;-1.930;2023-09-18T05:00:11;98558.54;;;17.15;90.71
60642;BME280;46837;52.446;-1.930;2023-09-18T05:01:09;98562.35;;;17.14;90.69
60642;BME280;46837;52.446;-1.930;2023-09-18T05:02:09;98562.75;;;17.13;90.79
60642;BME280;46837;52.446;-1.930;2023-09-18T05:03:09;98564.34;;;17.16;90.75
60642;BME280;46837;52.446;-1.930;2023-09-18T05:04:09;98564.40;;;17.15;90.68
60642;BME280;46837;52.446;-1.930;2023-09-18T05:05:09;98564.04;;;17.17;90.63
60642;BME280;46837;52.446;-1.930;2023-09-18T05:06:09;98561.06;;;17.21;90.51
60642;BME280;46837;52.446;-1.930;2023-09-18T05:07:09;98560.03;;;17.23;90.48
60642;BME280;46837;52.446;-1.930;2023-09-18T05:08:10;98558.11;;;17.21;90.43
60642;BME280;46837;52.446;-1.930;2023-09-18T05:09:09;98558.81;;;17.20;90.52
60642;BME280;46837;52.446;-1.930;2023-09-18T05:10:09;98558.08;;;17.19;90.64
60642;BME280;46837;52.446;-1.930;2023-09-18T05:11:09;98554.27;;;17.19;90.70
60642;BME280;46837;52.446;-1.930;2023-09-18T05:12:11;98554.07;;;17.20;90.54
60642;BME280;46837;52.446;-1.930;2023-09-18T05:13:09;98554.57;;;17.20;90.53
60642;BME280;46837;52.446;-1.930;2023-09-18T05:14:09;98557.55;;;17.12;90.77
60642;BME280;46837;52.446;-1.930;2023-09-18T05:15:09;98555.30;;;17.13;90.72